PWSweather.com
Personal Weather Stations
Station Observations
MDHALE1
Southwest Baltimore Co., Halethorpe, MD 21227

Southwest Baltimore Co.Halethorpe, MD 21227

Lat: 39.23643, Lon: -76.696959

Elevation: 86

Station Type: Davis Vantage Pro2+

http://www.halethorpeweather.com

Latest ConditionsUpdated 10:45:01 PM EST Sunday, Feb 19, 2017
Currently Today's Max Today's Min Today's Average
Temperature 51.0°F10.6°C 70.9°F21.6°C 51.0°F10.6°C 62.4°F16.9°C
Dew Point 40.4°F4.7°C 45.6°F7.6°C 33.3°F0.7°C 41.4°F5.2°C
Winds Calm Calm 9.2 mph WSW14.8 kmh WSW - 2.5 mph 4.0 kmh
Wind Gusts -- 15.0 mph24.1 kmh - -
Humidity 67% 67% 35% 47%
Pressure 30.02 in1016.6 mb 30.02 in1016.6 mb 29.76 in1007.8 mb -
Hour Temp Dew Point Humidity Winds Wind Gusts Pressure Precip Precip Rate Daily Precip Total
10:45 PM 51.0°F10.6°C 40.4°F4.7°C 67% Calm Calm -- 30.02 in1016.6 mb - 0.00 in0.0 mm 0.00 in0.0 mm
10:30 PM 52.9°F11.6°C 41.1°F5.1°C 64% Calm Calm 1.2 mph1.9 kmh 30.02 in1016.6 mb - 0.00 in0.0 mm 0.00 in0.0 mm
10:15 PM 53.6°F12.0°C 41.3°F5.2°C 63% Calm Calm -- 30.02 in1016.6 mb - 0.00 in0.0 mm 0.00 in0.0 mm
10:00 PM 54.8°F12.7°C 41.6°F5.3°C 61% Calm Calm -- 30.01 in1016.3 mb - 0.00 in0.0 mm 0.00 in0.0 mm
09:45 PM 55.7°F13.2°C 41.6°F5.3°C 59% Calm Calm -- 30.01 in1016.3 mb - 0.00 in0.0 mm 0.00 in0.0 mm
09:15 PM 56.9°F13.8°C 41.8°F5.4°C 57% Calm Calm 5.8 mph9.3 kmh 30.00 in1015.9 mb - 0.00 in0.0 mm 0.00 in0.0 mm
09:00 PM 57.3°F14.1°C 42.1°F5.6°C 57% 1.2 mph WSW1.9 kmh WSW 2.3 mph3.7 kmh 30.00 in1015.9 mb - 0.00 in0.0 mm 0.00 in0.0 mm
08:45 PM 58.1°F14.5°C 42.0°F5.6°C 55% Calm Calm -- 29.98 in1015.2 mb - 0.00 in0.0 mm 0.00 in0.0 mm
08:30 PM 57.8°F14.3°C 42.2°F5.7°C 56% 2.3 mph WSW3.7 kmh WSW 4.6 mph7.4 kmh 29.98 in1015.2 mb - 0.00 in0.0 mm 0.00 in0.0 mm
08:15 PM 57.3°F14.1°C 41.8°F5.4°C 56% Calm Calm -- 29.97 in1014.9 mb - 0.00 in0.0 mm 0.00 in0.0 mm
08:00 PM 58.6°F14.8°C 42.0°F5.6°C 54% 1.2 mph WSW1.9 kmh WSW 1.2 mph1.9 kmh 29.97 in1014.9 mb - 0.00 in0.0 mm 0.00 in0.0 mm
07:45 PM 59.9°F15.5°C 42.2°F5.7°C 52% Calm Calm -- 29.96 in1014.6 mb - 0.00 in0.0 mm 0.00 in0.0 mm
07:30 PM 60.5°F15.8°C 42.3°F5.7°C 51% Calm Calm 5.8 mph9.3 kmh 29.96 in1014.6 mb - 0.00 in0.0 mm 0.00 in0.0 mm
07:15 PM 60.6°F15.9°C 42.3°F5.7°C 51% Calm Calm 3.5 mph5.6 kmh 29.96 in1014.6 mb - 0.00 in0.0 mm 0.00 in0.0 mm
07:00 PM 61.3°F16.3°C 42.0°F5.6°C 49% Calm Calm -- 29.95 in1014.2 mb - 0.00 in0.0 mm 0.00 in0.0 mm
06:45 PM 62.8°F17.1°C 42.3°F5.7°C 47% 1.2 mph W1.9 kmh W 1.2 mph1.9 kmh 29.94 in1013.9 mb - 0.00 in0.0 mm 0.00 in0.0 mm
06:30 PM 63.1°F17.3°C 42.5°F5.8°C 47% 2.3 mph W3.7 kmh W 4.6 mph7.4 kmh 29.94 in1013.9 mb - 0.00 in0.0 mm 0.00 in0.0 mm
06:15 PM 64.3°F17.9°C 42.5°F5.8°C 45% 1.2 mph WSW1.9 kmh WSW 5.8 mph9.3 kmh 29.93 in1013.5 mb - 0.00 in0.0 mm 0.00 in0.0 mm
06:00 PM 63.7°F17.6°C 41.4°F5.2°C 44% 2.3 mph W3.7 kmh W 5.8 mph9.3 kmh 29.93 in1013.5 mb - 0.00 in0.0 mm 0.00 in0.0 mm
05:45 PM 64.2°F17.9°C 41.2°F5.1°C 43% 1.2 mph WNW1.9 kmh WNW 8.1 mph13.0 kmh 29.92 in1013.2 mb - 0.00 in0.0 mm 0.00 in0.0 mm
05:30 PM 65.8°F18.8°C 41.4°F5.2°C 41% 3.5 mph W5.6 kmh W 8.1 mph13.0 kmh 29.92 in1013.2 mb - 0.00 in0.0 mm 0.00 in0.0 mm
05:15 PM 66.2°F19.0°C 41.1°F5.1°C 40% 1.2 mph W1.9 kmh W 6.9 mph11.1 kmh 29.91 in1012.9 mb - 0.00 in0.0 mm 0.00 in0.0 mm
05:00 PM 66.5°F19.2°C 41.4°F5.2°C 40% 3.5 mph W5.6 kmh W 6.9 mph11.1 kmh 29.91 in1012.9 mb - 0.00 in0.0 mm 0.00 in0.0 mm
04:45 PM 67.7°F19.8°C 42.5°F5.8°C 40% 2.3 mph WNW3.7 kmh WNW 8.1 mph13.0 kmh 29.90 in1012.5 mb - 0.00 in0.0 mm 0.00 in0.0 mm
04:30 PM 68.5°F20.3°C 41.2°F5.1°C 37% 3.5 mph WNW5.6 kmh WNW 10.4 mph16.7 kmh 29.90 in1012.5 mb - 0.00 in0.0 mm 0.00 in0.0 mm
04:15 PM 69.2°F20.7°C 40.4°F4.7°C 35% 9.2 mph NW14.8 kmh NW 11.5 mph18.5 kmh 29.90 in1012.5 mb - 0.00 in0.0 mm 0.00 in0.0 mm
04:00 PM 70.1°F21.2°C 42.6°F5.9°C 37% 2.3 mph NW3.7 kmh NW 6.9 mph11.1 kmh 29.90 in1012.5 mb - 0.00 in0.0 mm 0.00 in0.0 mm
03:45 PM 70.0°F21.1°C 41.1°F5.1°C 35% 9.2 mph WSW14.8 kmh WSW 15.0 mph24.1 kmh 29.90 in1012.5 mb - 0.00 in0.0 mm 0.00 in0.0 mm
03:30 PM 70.2°F21.2°C 43.4°F6.3°C 38% 3.5 mph WSW5.6 kmh WSW 3.5 mph5.6 kmh 29.89 in1012.2 mb - 0.00 in0.0 mm 0.00 in0.0 mm
03:15 PM 70.5°F21.4°C 43.7°F6.5°C 38% 4.6 mph W7.4 kmh W 6.9 mph11.1 kmh 29.89 in1012.2 mb - 0.00 in0.0 mm 0.00 in0.0 mm
03:00 PM 70.7°F21.5°C 42.4°F5.8°C 36% 6.9 mph W11.1 kmh W 12.7 mph20.4 kmh 29.88 in1011.9 mb - 0.00 in0.0 mm 0.00 in0.0 mm
02:45 PM 70.6°F21.4°C 44.4°F6.9°C 39% 1.2 mph WSW1.9 kmh WSW 4.6 mph7.4 kmh 29.88 in1011.9 mb - 0.00 in0.0 mm 0.00 in0.0 mm
02:30 PM 70.6°F21.4°C 44.5°F6.9°C 39% 3.5 mph WSW5.6 kmh WSW 11.5 mph18.5 kmh 29.87 in1011.5 mb - 0.00 in0.0 mm 0.00 in0.0 mm
02:15 PM 70.9°F21.6°C 44.7°F7.1°C 39% 2.3 mph WNW3.7 kmh WNW 4.6 mph7.4 kmh 29.88 in1011.9 mb - 0.00 in0.0 mm 0.00 in0.0 mm
02:00 PM 70.2°F21.2°C 44.1°F6.7°C 39% 8.1 mph WNW13.0 kmh WNW 13.8 mph22.2 kmh 29.88 in1011.9 mb - 0.00 in0.0 mm 0.00 in0.0 mm
01:45 PM 69.9°F21.1°C 43.1°F6.2°C 38% 6.9 mph NW11.1 kmh NW 10.4 mph16.7 kmh 29.88 in1011.9 mb - 0.00 in0.0 mm 0.00 in0.0 mm
01:30 PM 69.6°F20.9°C 44.8°F7.1°C 41% 4.6 mph WNW7.4 kmh WNW 9.2 mph14.8 kmh 29.88 in1011.9 mb - 0.00 in0.0 mm 0.00 in0.0 mm
01:15 PM 69.5°F20.8°C 44.7°F7.1°C 41% 3.5 mph W5.6 kmh W 8.1 mph13.0 kmh 29.88 in1011.9 mb - 0.00 in0.0 mm 0.00 in0.0 mm
01:00 PM 70.0°F21.1°C 44.5°F6.9°C 40% 1.2 mph W1.9 kmh W 8.1 mph13.0 kmh 29.88 in1011.9 mb - 0.00 in0.0 mm 0.00 in0.0 mm
12:45 PM 69.2°F20.7°C 45.1°F7.3°C 42% 6.9 mph WNW11.1 kmh WNW 12.7 mph20.4 kmh 29.88 in1011.9 mb - 0.00 in0.0 mm 0.00 in0.0 mm
12:30 PM 68.9°F20.5°C 44.9°F7.2°C 42% 4.6 mph WNW7.4 kmh WNW 6.9 mph11.1 kmh 29.88 in1011.9 mb - 0.00 in0.0 mm 0.00 in0.0 mm
12:15 PM 68.2°F20.1°C 44.8°F7.1°C 43% 6.9 mph WNW11.1 kmh WNW 9.2 mph14.8 kmh 29.88 in1011.9 mb - 0.00 in0.0 mm 0.00 in0.0 mm
12:00 PM 67.7°F19.8°C 45.0°F7.2°C 44% 4.6 mph NW7.4 kmh NW 8.1 mph13.0 kmh 29.89 in1012.2 mb - 0.00 in0.0 mm 0.00 in0.0 mm
11:45 AM 67.0°F19.4°C 44.9°F7.2°C 45% 5.8 mph NNW9.3 kmh NNW 5.8 mph9.3 kmh 29.90 in1012.5 mb - 0.00 in0.0 mm 0.00 in0.0 mm
11:30 AM 67.0°F19.4°C 44.4°F6.9°C 44% 3.5 mph NW5.6 kmh NW 3.5 mph5.6 kmh 29.90 in1012.5 mb - 0.00 in0.0 mm 0.00 in0.0 mm
11:15 AM 66.3°F19.1°C 44.9°F7.2°C 46% 4.6 mph WNW7.4 kmh WNW 5.8 mph9.3 kmh 29.90 in1012.5 mb - 0.00 in0.0 mm 0.00 in0.0 mm
11:00 AM 65.9°F18.8°C 45.6°F7.6°C 48% 3.5 mph WNW5.6 kmh WNW 6.9 mph11.1 kmh 29.90 in1012.5 mb - 0.00 in0.0 mm 0.00 in0.0 mm
10:45 AM 65.4°F18.6°C 45.2°F7.3°C 48% 5.8 mph WNW9.3 kmh WNW 8.1 mph13.0 kmh 29.89 in1012.2 mb - 0.00 in0.0 mm 0.00 in0.0 mm
10:30 AM 63.7°F17.6°C 44.7°F7.1°C 50% 4.6 mph WNW7.4 kmh WNW 6.9 mph11.1 kmh 29.89 in1012.2 mb - 0.00 in0.0 mm 0.00 in0.0 mm
10:15 AM 62.4°F16.9°C 45.1°F7.3°C 53% 5.8 mph WNW9.3 kmh WNW 10.4 mph16.7 kmh 29.89 in1012.2 mb - 0.00 in0.0 mm 0.00 in0.0 mm
10:00 AM 61.2°F16.2°C 44.9°F7.2°C 55% 1.2 mph NW1.9 kmh NW 3.5 mph5.6 kmh 29.89 in1012.2 mb - 0.00 in0.0 mm 0.00 in0.0 mm
09:45 AM 61.1°F16.2°C 44.4°F6.9°C 54% 5.8 mph NW9.3 kmh NW 10.4 mph16.7 kmh 29.89 in1012.2 mb - 0.00 in0.0 mm 0.00 in0.0 mm
09:30 AM 61.2°F16.2°C 44.4°F6.9°C 54% 6.9 mph W11.1 kmh W 10.4 mph16.7 kmh 29.89 in1012.2 mb - 0.00 in0.0 mm 0.00 in0.0 mm
09:15 AM 61.2°F16.2°C 44.9°F7.2°C 55% Calm Calm 2.3 mph3.7 kmh 29.89 in1012.2 mb - 0.00 in0.0 mm 0.00 in0.0 mm
09:00 AM 60.2°F15.7°C 44.4°F6.9°C 56% 1.2 mph W1.9 kmh W 2.3 mph3.7 kmh 29.88 in1011.9 mb - 0.00 in0.0 mm 0.00 in0.0 mm
08:45 AM 59.9°F15.5°C 44.2°F6.8°C 56% 1.2 mph W1.9 kmh W 6.9 mph11.1 kmh 29.88 in1011.9 mb - 0.00 in0.0 mm 0.00 in0.0 mm
08:30 AM 59.9°F15.5°C 43.7°F6.5°C 55% Calm Calm 1.2 mph1.9 kmh 29.87 in1011.5 mb - 0.00 in0.0 mm 0.00 in0.0 mm
08:15 AM 59.4°F15.2°C 43.3°F6.3°C 55% 5.8 mph W9.3 kmh W 8.1 mph13.0 kmh 29.86 in1011.2 mb - 0.00 in0.0 mm 0.00 in0.0 mm
08:04 AM 59.3°F15.2°C 43.6°F6.4°C 56% 1.2 mph WNW1.9 kmh WNW -- 29.86 in1011.2 mb - 0.00 in0.0 mm 0.00 in0.0 mm
08:00 AM 59.2°F15.1°C 43.5°F6.4°C 56% 1.2 mph WNW1.9 kmh WNW 4.6 mph7.4 kmh 29.86 in1011.2 mb - 0.00 in0.0 mm 0.00 in0.0 mm
07:45 AM 59.3°F15.2°C 43.1°F6.2°C 55% 1.2 mph WNW1.9 kmh WNW 2.3 mph3.7 kmh 29.86 in1011.2 mb - 0.00 in0.0 mm 0.00 in0.0 mm
07:30 AM 59.3°F15.2°C 42.7°F5.9°C 54% 1.2 mph WNW1.9 kmh WNW -- 29.85 in1010.8 mb - 0.00 in0.0 mm 0.00 in0.0 mm
07:15 AM 59.5°F15.3°C 42.8°F6.0°C 54% 2.3 mph WNW3.7 kmh WNW 1.2 mph1.9 kmh 29.85 in1010.8 mb - 0.00 in0.0 mm 0.00 in0.0 mm
07:00 AM 59.7°F15.4°C 42.5°F5.8°C 53% 2.3 mph W3.7 kmh W 3.5 mph5.6 kmh 29.84 in1010.5 mb - 0.00 in0.0 mm 0.00 in0.0 mm
06:45 AM 60.0°F15.6°C 42.3°F5.7°C 52% 4.6 mph WNW7.4 kmh WNW 8.1 mph13.0 kmh 29.83 in1010.2 mb - 0.00 in0.0 mm 0.00 in0.0 mm
06:30 AM 59.9°F15.5°C 42.2°F5.7°C 52% 1.2 mph W1.9 kmh W 5.8 mph9.3 kmh 29.82 in1009.8 mb - 0.00 in0.0 mm 0.00 in0.0 mm
06:15 AM 60.1°F15.6°C 41.9°F5.5°C 51% 6.9 mph WNW11.1 kmh WNW 10.4 mph16.7 kmh 29.82 in1009.8 mb - 0.00 in0.0 mm 0.00 in0.0 mm
06:00 AM 60.0°F15.6°C 41.3°F5.2°C 50% 5.8 mph WNW9.3 kmh WNW 10.4 mph16.7 kmh 29.82 in1009.8 mb - 0.00 in0.0 mm 0.00 in0.0 mm
05:45 AM 60.0°F15.6°C 40.8°F4.9°C 49% 2.3 mph WNW3.7 kmh WNW 5.8 mph9.3 kmh 29.81 in1009.5 mb - 0.00 in0.0 mm 0.00 in0.0 mm
05:30 AM 60.4°F15.8°C 40.6°F4.8°C 48% 4.6 mph WNW7.4 kmh WNW 6.9 mph11.1 kmh 29.81 in1009.5 mb - 0.00 in0.0 mm 0.00 in0.0 mm
05:15 AM 60.7°F15.9°C 40.3°F4.6°C 47% 1.2 mph WNW1.9 kmh WNW 2.3 mph3.7 kmh 29.81 in1009.5 mb - 0.00 in0.0 mm 0.00 in0.0 mm
05:00 AM 61.2°F16.2°C 40.8°F4.9°C 47% 1.2 mph WNW1.9 kmh WNW 6.9 mph11.1 kmh 29.80 in1009.1 mb - 0.00 in0.0 mm 0.00 in0.0 mm
04:45 AM 61.1°F16.2°C 40.7°F4.8°C 47% 4.6 mph WNW7.4 kmh WNW 12.7 mph20.4 kmh 29.80 in1009.1 mb - 0.00 in0.0 mm 0.00 in0.0 mm
04:30 AM 60.6°F15.9°C 40.2°F4.6°C 47% 6.9 mph W11.1 kmh W 10.4 mph16.7 kmh 29.80 in1009.1 mb - 0.00 in0.0 mm 0.00 in0.0 mm
04:15 AM 60.2°F15.7°C 40.4°F4.7°C 48% 3.5 mph NW5.6 kmh NW 5.8 mph9.3 kmh 29.79 in1008.8 mb - 0.00 in0.0 mm 0.00 in0.0 mm
04:00 AM 59.0°F15.0°C 38.2°F3.4°C 46% 3.5 mph W5.6 kmh W 8.1 mph13.0 kmh 29.79 in1008.8 mb - 0.00 in0.0 mm 0.00 in0.0 mm
03:45 AM 58.2°F14.6°C 37.5°F3.1°C 46% Calm Calm 4.6 mph7.4 kmh 29.79 in1008.8 mb - 0.00 in0.0 mm 0.00 in0.0 mm
03:30 AM 58.4°F14.7°C 37.7°F3.2°C 46% Calm Calm -- 29.79 in1008.8 mb - 0.00 in0.0 mm 0.00 in0.0 mm
03:15 AM 58.7°F14.8°C 36.8°F2.7°C 44% Calm Calm -- 29.79 in1008.8 mb - 0.00 in0.0 mm 0.00 in0.0 mm
03:00 AM 59.2°F15.1°C 36.1°F2.3°C 42% Calm Calm -- 29.78 in1008.5 mb - 0.00 in0.0 mm 0.00 in0.0 mm
02:45 AM 58.6°F14.8°C 35.5°F1.9°C 42% Calm Calm 1.2 mph1.9 kmh 29.78 in1008.5 mb - 0.00 in0.0 mm 0.00 in0.0 mm
02:30 AM 57.8°F14.3°C 35.4°F1.9°C 43% Calm Calm -- 29.78 in1008.5 mb - 0.00 in0.0 mm 0.00 in0.0 mm
02:15 AM 60.3°F15.7°C 34.6°F1.4°C 38% Calm Calm -- 29.79 in1008.8 mb - 0.00 in0.0 mm 0.00 in0.0 mm
02:00 AM 60.5°F15.8°C 34.8°F1.6°C 38% Calm Calm 1.2 mph1.9 kmh 29.79 in1008.8 mb - 0.00 in0.0 mm 0.00 in0.0 mm
01:45 AM 60.0°F15.6°C 34.9°F1.6°C 39% Calm Calm 1.2 mph1.9 kmh 29.79 in1008.8 mb - 0.00 in0.0 mm 0.00 in0.0 mm
01:30 AM 59.7°F15.4°C 34.6°F1.4°C 39% Calm Calm -- 29.77 in1008.1 mb - 0.00 in0.0 mm 0.00 in0.0 mm
01:15 AM 59.3°F15.2°C 35.0°F1.7°C 40% Calm Calm -- 29.78 in1008.5 mb - 0.00 in0.0 mm 0.00 in0.0 mm
01:00 AM 59.9°F15.5°C 34.2°F1.2°C 38% Calm Calm -- 29.78 in1008.5 mb - 0.00 in0.0 mm 0.00 in0.0 mm
12:45 AM 61.3°F16.3°C 34.1°F1.2°C 36% Calm Calm 2.3 mph3.7 kmh 29.78 in1008.5 mb - 0.00 in0.0 mm 0.00 in0.0 mm
12:30 AM 61.2°F16.2°C 33.3°F0.7°C 35% 3.5 mph WSW5.6 kmh WSW 5.8 mph9.3 kmh 29.78 in1008.5 mb - 0.00 in0.0 mm 0.00 in0.0 mm
12:15 AM 61.3°F16.3°C 34.1°F1.2°C 36% 1.2 mph W1.9 kmh W 4.6 mph7.4 kmh 29.77 in1008.1 mb - 0.00 in0.0 mm 0.00 in0.0 mm
12:01 AM 59.2°F15.1°C 34.8°F1.6°C 40% Calm Calm -- 29.76 in1007.8 mb - 0.00 in0.0 mm 0.00 in0.0 mm